Terminal Aerodrome Forecast
Issued by NWS

Home | Current Version | Previous Version | Text Only | Print | Product List | Glossary On
Versions: 1 2 3 4 5 6 7 8 9 10 11 12 13 14 15 16 17 18
865
FTUS44 KLZK 180347 AAA
TAFPBF
TAF AMD
KPBF 180347Z 1804/1824 VRB06KT 1SM BR BKN002 OVC010
      TEMPO 1808/1812 1/4SM FG VV001
     FM181200 VRB02KT 5SM BR SCT010 BKN020
     FM181800 12006KT P6SM BKN010 OVC020 WS020/17030KT=

USA.gov is the U.S. government's official web portal to all federal, state and local government web resources and services.